Hauptseite
METAR-TAF:

METAR-TAF

Flughäfen :

Augsburg, Deutschland

Flughafen Augsburg

Breite: 48-26N, Länge: 010-56E, Höhe: 461 m

Beobachtung

Neuester Wetterbericht von vor 18 Minuten, um 03:20 UTC
Wind 6 kt aus Süd, variierte zwischen Südost und Süd
Temperatur 5°C
Luftfeuchtigkeit 87%
Luftdruck 988 hPa
Sichtweite 10 km oder mehr

METAR: EDMA 110320Z AUTO 17006KT 130V190 9999 // FEW057/// OVC065/// 05/03 Q0988

Zeit: 04:38 (03:38 UTC)

Prognose

Neuester Wetterbericht von vor 10 Stunden und 38 Minuten, um 17:00 UTC
Gültige Prognose vom 10 um 18 UTC bis 11 um 03 UTC
Wind 10 kt aus Südwest
Sichtweite 10 km oder mehr
Durchbrochene Bewölkung in der Höhe von 2500 ft
Zeitweise
vom 10 um 18 UTC bis 10 um 22 UTC
Wind 15 kt aus West/Südwest, Böen bis zu 25 kt

TAF: EDMA 101700Z 1018/1103 22010KT 9999 BKN025 TEMPO 1018/1022 24015G25KT

Wetterbeobachtungen und Prognosen von mehr als 4000 Flughäfen (METAR und TAF Bericht).

Die verfügbaren Stationen werden durch gelbe und rote Markierungen auf der Karte dargestellt.

Führen Sie die Maus auf sie, um den Namen der Station zu sehen.

Darauf klicken, um die Beobachtung von Wetterbeobachtungen und Prognosen zu sehen.

Um die Karte zu ändern : klicken Sie auf den grünen Tasten mit einem schwarzen Kreuz Zum Vergrößern, auf den grünen Button mit einem Gedankenstrich zu verkleinern, oder auf die grünen Pfeile für benachbarte Karten.


METAR-TAF: